sensor_id;sensor_type;location;lat;lon;timestamp;temperature;humidity
8475;DHT22;4274;52.012;8.448;2024-03-08T00:01:35;2.80;99.90
8475;DHT22;4274;52.012;8.448;2024-03-08T00:04:01;2.80;99.90
8475;DHT22;4274;52.012;8.448;2024-03-08T00:06:26;2.80;99.90
8475;DHT22;4274;52.012;8.448;2024-03-08T00:08:52;2.80;99.90
8475;DHT22;4274;52.012;8.448;2024-03-08T00:11:17;2.80;99.90
8475;DHT22;4274;52.012;8.448;2024-03-08T00:13:43;2.70;99.90
8475;DHT22;4274;52.012;8.448;2024-03-08T00:16:10;2.70;99.90
8475;DHT22;4274;52.012;8.448;2024-03-08T00:18:35;2.70;99.90
8475;DHT22;4274;52.012;8.448;2024-03-08T00:21:01;2.70;99.90
8475;DHT22;4274;52.012;8.448;2024-03-08T00:23:27;2.60;99.90
8475;DHT22;4274;52.012;8.448;2024-03-08T00:25:53;2.60;99.90
8475;DHT22;4274;52.012;8.448;2024-03-08T00:28:20;2.60;99.90
8475;DHT22;4274;52.012;8.448;2024-03-08T00:30:45;2.60;99.90
8475;DHT22;4274;52.012;8.448;2024-03-08T00:33:12;2.60;99.90
8475;DHT22;4274;52.012;8.448;2024-03-08T00:35:37;2.60;99.90
8475;DHT22;4274;52.012;8.448;2024-03-08T00:38:03;2.50;99.90
8475;DHT22;4274;52.012;8.448;2024-03-08T00:40:29;2.40;99.90
8475;DHT22;4274;52.012;8.448;2024-03-08T00:42:54;2.40;99.90
8475;DHT22;4274;52.012;8.448;2024-03-08T00:45:20;2.40;99.90
8475;DHT22;4274;52.012;8.448;2024-03-08T00:47:45;2.40;99.90
8475;DHT22;4274;52.012;8.448;2024-03-08T00:50:11;2.40;99.90
8475;DHT22;4274;52.012;8.448;2024-03-08T00:52:38;2.50;99.90
8475;DHT22;4274;52.012;8.448;2024-03-08T00:55:04;2.50;99.90
8475;DHT22;4274;52.012;8.448;2024-03-08T00:57:29;2.40;99.90
8475;DHT22;4274;52.012;8.448;2024-03-08T00:59:55;2.50;99.90
8475;DHT22;4274;52.012;8.448;2024-03-08T01:02:21;2.50;99.90
8475;DHT22;4274;52.012;8.448;2024-03-08T01:04:48;2.40;99.90
8475;DHT22;4274;52.012;8.448;2024-03-08T01:07:14;2.40;99.90
8475;DHT22;4274;52.012;8.448;2024-03-08T01:09:40;2.40;99.90
8475;DHT22;4274;52.012;8.448;2024-03-08T01:12:06;2.40;99.90
8475;DHT22;4274;52.012;8.448;2024-03-08T01:14:32;2.40;99.90
8475;DHT22;4274;52.012;8.448;2024-03-08T01:16:58;2.40;99.90
8475;DHT22;4274;52.012;8.448;2024-03-08T01:19:24;2.30;99.90
8475;DHT22;4274;52.012;8.448;2024-03-08T01:21:50;2.40;99.90
8475;DHT22;4274;52.012;8.448;2024-03-08T01:24:16;2.40;99.90
8475;DHT22;4274;52.012;8.448;2024-03-08T01:26:41;2.40;99.90
8475;DHT22;4274;52.012;8.448;2024-03-08T01:29:07;2.40;99.90
8475;DHT22;4274;52.012;8.448;2024-03-08T01:31:33;2.40;99.90
8475;DHT22;4274;52.012;8.448;2024-03-08T01:33:59;2.30;99.90
8475;DHT22;4274;52.012;8.448;2024-03-08T01:36:25;2.30;99.90
8475;DHT22;4274;52.012;8.448;2024-03-08T01:38:51;2.40;99.90
8475;DHT22;4274;52.012;8.448;2024-03-08T01:41:17;2.40;99.90
8475;DHT22;4274;52.012;8.448;2024-03-08T01:43:44;2.30;99.90
8475;DHT22;4274;52.012;8.448;2024-03-08T01:46:12;2.30;99.90
8475;DHT22;4274;52.012;8.448;2024-03-08T01:48:40;2.30;99.90
8475;DHT22;4274;52.012;8.448;2024-03-08T01:51:06;2.20;99.90
8475;DHT22;4274;52.012;8.448;2024-03-08T01:53:32;2.20;99.90
8475;DHT22;4274;52.012;8.448;2024-03-08T01:55:58;2.20;99.90
8475;DHT22;4274;52.012;8.448;2024-03-08T01:58:27;2.20;99.90
8475;DHT22;4274;52.012;8.448;2024-03-08T02:00:53;2.20;99.90
8475;DHT22;4274;52.012;8.448;2024-03-08T02:03:19;2.30;99.90
8475;DHT22;4274;52.012;8.448;2024-03-08T02:05:46;2.30;99.90
8475;DHT22;4274;52.012;8.448;2024-03-08T02:08:12;2.40;99.90
8475;DHT22;4274;52.012;8.448;2024-03-08T02:10:39;2.40;99.90
8475;DHT22;4274;52.012;8.448;2024-03-08T02:13:05;2.40;99.90
8475;DHT22;4274;52.012;8.448;2024-03-08T02:18:15;2.30;99.90
8475;DHT22;4274;52.012;8.448;2024-03-08T02:20:42;2.30;99.90
8475;DHT22;4274;52.012;8.448;2024-03-08T02:23:08;2.20;99.90
8475;DHT22;4274;52.012;8.448;2024-03-08T02:25:35;2.10;99.90
8475;DHT22;4274;52.012;8.448;2024-03-08T02:28:00;2.00;99.90
8475;DHT22;4274;52.012;8.448;2024-03-08T02:30:26;2.00;99.90
8475;DHT22;4274;52.012;8.448;2024-03-08T02:32:55;2.00;99.90
8475;DHT22;4274;52.012;8.448;2024-03-08T02:35:21;1.90;99.90
8475;DHT22;4274;52.012;8.448;2024-03-08T02:37:47;1.90;99.90
8475;DHT22;4274;52.012;8.448;2024-03-08T02:40:13;1.90;99.90
8475;DHT22;4274;52.012;8.448;2024-03-08T02:42:39;1.90;99.90
8475;DHT22;4274;52.012;8.448;2024-03-08T02:45:05;1.80;99.90
8475;DHT22;4274;52.012;8.448;2024-03-08T02:47:31;1.80;99.90
8475;DHT22;4274;52.012;8.448;2024-03-08T02:49:57;1.80;99.90
8475;DHT22;4274;52.012;8.448;2024-03-08T02:52:22;1.70;99.90
8475;DHT22;4274;52.012;8.448;2024-03-08T02:54:48;1.70;99.90
8475;DHT22;4274;52.012;8.448;2024-03-08T02:57:14;1.70;99.90
8475;DHT22;4274;52.012;8.448;2024-03-08T02:59:40;1.70;99.90
8475;DHT22;4274;52.012;8.448;2024-03-08T03:02:06;1.70;99.90
8475;DHT22;4274;52.012;8.448;2024-03-08T03:04:32;1.70;99.90
8475;DHT22;4274;52.012;8.448;2024-03-08T03:07:00;1.70;99.90
8475;DHT22;4274;52.012;8.448;2024-03-08T03:09:26;1.70;99.90
8475;DHT22;4274;52.012;8.448;2024-03-08T03:11:53;1.70;99.90
8475;DHT22;4274;52.012;8.448;2024-03-08T03:14:21;1.60;99.90
8475;DHT22;4274;52.012;8.448;2024-03-08T03:16:46;1.60;99.90
8475;DHT22;4274;52.012;8.448;2024-03-08T03:19:12;1.60;99.90
8475;DHT22;4274;52.012;8.448;2024-03-08T03:21:38;1.50;99.90
8475;DHT22;4274;52.012;8.448;2024-03-08T03:24:04;1.50;99.90
8475;DHT22;4274;52.012;8.448;2024-03-08T03:26:38;1.50;99.90
8475;DHT22;4274;52.012;8.448;2024-03-08T03:29:07;1.50;99.90
8475;DHT22;4274;52.012;8.448;2024-03-08T03:31:34;1.50;99.90
8475;DHT22;4274;52.012;8.448;2024-03-08T03:34:01;1.50;99.90
8475;DHT22;4274;52.012;8.448;2024-03-08T03:36:30;1.50;99.90
8475;DHT22;4274;52.012;8.448;2024-03-08T03:38:56;1.50;99.90
8475;DHT22;4274;52.012;8.448;2024-03-08T03:41:41;1.50;99.90
8475;DHT22;4274;52.012;8.448;2024-03-08T03:44:07;1.40;99.90
8475;DHT22;4274;52.012;8.448;2024-03-08T03:46:33;1.50;99.90
8475;DHT22;4274;52.012;8.448;2024-03-08T03:48:58;1.50;99.90
8475;DHT22;4274;52.012;8.448;2024-03-08T03:51:24;1.50;99.90
8475;DHT22;4274;52.012;8.448;2024-03-08T03:53:51;1.50;99.90
8475;DHT22;4274;52.012;8.448;2024-03-08T03:56:16;1.50;99.90
8475;DHT22;4274;52.012;8.448;2024-03-08T03:58:42;1.50;99.90
8475;DHT22;4274;52.012;8.448;2024-03-08T04:01:08;1.50;99.90
8475;DHT22;4274;52.012;8.448;2024-03-08T04:03:35;1.50;99.90
8475;DHT22;4274;52.012;8.448;2024-03-08T04:06:00;1.50;99.90
8475;DHT22;4274;52.012;8.448;2024-03-08T04:08:27;1.50;99.90
8475;DHT22;4274;52.012;8.448;2024-03-08T04:10:52;1.50;99.90
8475;DHT22;4274;52.012;8.448;2024-03-08T04:13:18;1.40;99.90
8475;DHT22;4274;52.012;8.448;2024-03-08T04:15:46;1.40;99.90
8475;DHT22;4274;52.012;8.448;2024-03-08T04:18:13;1.40;99.90
8475;DHT22;4274;52.012;8.448;2024-03-08T04:20:39;1.40;99.90
8475;DHT22;4274;52.012;8.448;2024-03-08T04:23:06;1.30;99.90
8475;DHT22;4274;52.012;8.448;2024-03-08T04:25:31;1.30;99.90
8475;DHT22;4274;52.012;8.448;2024-03-08T04:27:57;1.20;99.90
8475;DHT22;4274;52.012;8.448;2024-03-08T04:30:23;1.20;99.90
8475;DHT22;4274;52.012;8.448;2024-03-08T04:32:49;1.20;99.90
8475;DHT22;4274;52.012;8.448;2024-03-08T04:35:15;1.20;99.90
8475;DHT22;4274;52.012;8.448;2024-03-08T04:37:41;1.30;99.90
8475;DHT22;4274;52.012;8.448;2024-03-08T04:40:07;1.30;99.90
8475;DHT22;4274;52.012;8.448;2024-03-08T04:42:33;1.40;99.90
8475;DHT22;4274;52.012;8.448;2024-03-08T04:44:59;1.50;99.90
8475;DHT22;4274;52.012;8.448;2024-03-08T04:47:24;1.50;99.90
8475;DHT22;4274;52.012;8.448;2024-03-08T04:49:50;1.50;99.90
8475;DHT22;4274;52.012;8.448;2024-03-08T04:52:16;1.60;99.90
8475;DHT22;4274;52.012;8.448;2024-03-08T04:54:42;1.60;99.90
8475;DHT22;4274;52.012;8.448;2024-03-08T04:57:08;1.60;99.90
8475;DHT22;4274;52.012;8.448;2024-03-08T04:59:33;1.60;99.90
8475;DHT22;4274;52.012;8.448;2024-03-08T05:01:59;1.60;99.90
8475;DHT22;4274;52.012;8.448;2024-03-08T05:04:25;1.60;99.90
8475;DHT22;4274;52.012;8.448;2024-03-08T05:06:50;1.60;99.90
8475;DHT22;4274;52.012;8.448;2024-03-08T05:09:16;1.60;99.90
8475;DHT22;4274;52.012;8.448;2024-03-08T05:11:43;1.60;99.90
8475;DHT22;4274;52.012;8.448;2024-03-08T05:14:12;1.60;99.90
8475;DHT22;4274;52.012;8.448;2024-03-08T05:16:45;1.50;99.90
8475;DHT22;4274;52.012;8.448;2024-03-08T05:19:17;1.50;99.90
8475;DHT22;4274;52.012;8.448;2024-03-08T05:21:46;1.50;99.90
8475;DHT22;4274;52.012;8.448;2024-03-08T05:24:12;1.50;99.90
8475;DHT22;4274;52.012;8.448;2024-03-08T05:26:39;1.50;99.90
8475;DHT22;4274;52.012;8.448;2024-03-08T05:29:05;1.40;99.90
8475;DHT22;4274;52.012;8.448;2024-03-08T05:31:42;1.40;99.90
8475;DHT22;4274;52.012;8.448;2024-03-08T05:34:10;1.30;99.90
8475;DHT22;4274;52.012;8.448;2024-03-08T05:36:36;1.30;99.90
8475;DHT22;4274;52.012;8.448;2024-03-08T05:39:02;1.30;99.90
8475;DHT22;4274;52.012;8.448;2024-03-08T05:41:27;1.20;99.90
8475;DHT22;4274;52.012;8.448;2024-03-08T05:43:53;1.20;99.90
8475;DHT22;4274;52.012;8.448;2024-03-08T05:46:19;1.20;99.90
8475;DHT22;4274;52.012;8.448;2024-03-08T05:48:44;1.20;99.90
8475;DHT22;4274;52.012;8.448;2024-03-08T05:51:10;1.20;99.90
8475;DHT22;4274;52.012;8.448;2024-03-08T05:53:36;1.30;99.90
8475;DHT22;4274;52.012;8.448;2024-03-08T05:56:02;1.30;99.90
8475;DHT22;4274;52.012;8.448;2024-03-08T05:58:28;1.20;99.90
8475;DHT22;4274;52.012;8.448;2024-03-08T06:00:55;1.20;99.90
8475;DHT22;4274;52.012;8.448;2024-03-08T06:03:21;1.20;99.90
8475;DHT22;4274;52.012;8.448;2024-03-08T06:05:48;1.20;99.90
8475;DHT22;4274;52.012;8.448;2024-03-08T06:08:13;1.20;99.90
8475;DHT22;4274;52.012;8.448;2024-03-08T06:10:40;1.20;99.90
8475;DHT22;4274;52.012;8.448;2024-03-08T06:13:05;1.20;99.90
8475;DHT22;4274;52.012;8.448;2024-03-08T06:15:32;1.30;99.90
8475;DHT22;4274;52.012;8.448;2024-03-08T06:17:57;1.30;99.90
8475;DHT22;4274;52.012;8.448;2024-03-08T06:20:23;1.30;99.90
8475;DHT22;4274;52.012;8.448;2024-03-08T06:22:52;1.30;99.90
8475;DHT22;4274;52.012;8.448;2024-03-08T06:25:18;1.30;99.90
8475;DHT22;4274;52.012;8.448;2024-03-08T06:27:43;1.30;99.90
8475;DHT22;4274;52.012;8.448;2024-03-08T06:30:11;1.30;99.90
8475;DHT22;4274;52.012;8.448;2024-03-08T06:32:37;1.40;99.90
8475;DHT22;4274;52.012;8.448;2024-03-08T06:35:03;1.40;99.90
8475;DHT22;4274;52.012;8.448;2024-03-08T06:37:34;1.60;99.90
8475;DHT22;4274;52.012;8.448;2024-03-08T06:40:00;1.80;99.90
8475;DHT22;4274;52.012;8.448;2024-03-08T06:42:29;1.90;99.90
8475;DHT22;4274;52.012;8.448;2024-03-08T06:44:59;2.00;99.90
8475;DHT22;4274;52.012;8.448;2024-03-08T06:47:30;2.20;99.90
8475;DHT22;4274;52.012;8.448;2024-03-08T06:49:55;2.40;99.90
8475;DHT22;4274;52.012;8.448;2024-03-08T06:52:21;2.40;99.90
8475;DHT22;4274;52.012;8.448;2024-03-08T06:54:47;2.60;99.90
8475;DHT22;4274;52.012;8.448;2024-03-08T06:57:13;2.70;99.90
8475;DHT22;4274;52.012;8.448;2024-03-08T06:59:39;2.70;99.90
8475;DHT22;4274;52.012;8.448;2024-03-08T07:02:05;2.80;99.90
8475;DHT22;4274;52.012;8.448;2024-03-08T07:04:34;2.90;99.90
8475;DHT22;4274;52.012;8.448;2024-03-08T07:07:03;3.00;99.90
8475;DHT22;4274;52.012;8.448;2024-03-08T07:09:29;3.10;99.90
8475;DHT22;4274;52.012;8.448;2024-03-08T07:11:55;3.20;99.90
8475;DHT22;4274;52.012;8.448;2024-03-08T07:14:24;3.30;99.90
8475;DHT22;4274;52.012;8.448;2024-03-08T07:16:50;3.30;99.90
8475;DHT22;4274;52.012;8.448;2024-03-08T07:19:16;3.30;99.90
8475;DHT22;4274;52.012;8.448;2024-03-08T07:21:45;3.30;99.90
8475;DHT22;4274;52.012;8.448;2024-03-08T07:24:12;3.30;99.90
8475;DHT22;4274;52.012;8.448;2024-03-08T07:26:58;3.30;99.90
8475;DHT22;4274;52.012;8.448;2024-03-08T07:29:24;3.20;99.90
8475;DHT22;4274;52.012;8.448;2024-03-08T07:31:50;3.20;99.90
8475;DHT22;4274;52.012;8.448;2024-03-08T07:34:21;3.20;99.90
8475;DHT22;4274;52.012;8.448;2024-03-08T07:36:47;3.20;99.90
8475;DHT22;4274;52.012;8.448;2024-03-08T07:39:12;3.20;99.90
8475;DHT22;4274;52.012;8.448;2024-03-08T07:41:39;3.30;99.90
8475;DHT22;4274;52.012;8.448;2024-03-08T07:44:07;3.20;99.90
8475;DHT22;4274;52.012;8.448;2024-03-08T07:46:33;3.30;99.90
8475;DHT22;4274;52.012;8.448;2024-03-08T07:48:59;3.30;99.90
8475;DHT22;4274;52.012;8.448;2024-03-08T07:51:25;3.30;99.90
8475;DHT22;4274;52.012;8.448;2024-03-08T07:53:51;3.40;99.90
8475;DHT22;4274;52.012;8.448;2024-03-08T07:56:16;3.50;99.90
8475;DHT22;4274;52.012;8.448;2024-03-08T07:58:44;3.60;99.90
8475;DHT22;4274;52.012;8.448;2024-03-08T08:01:19;3.70;99.90
8475;DHT22;4274;52.012;8.448;2024-03-08T08:03:45;3.90;99.90
8475;DHT22;4274;52.012;8.448;2024-03-08T08:06:11;4.30;99.90
8475;DHT22;4274;52.012;8.448;2024-03-08T08:08:41;4.90;99.90
8475;DHT22;4274;52.012;8.448;2024-03-08T08:11:07;5.50;99.90
8475;DHT22;4274;52.012;8.448;2024-03-08T08:13:34;6.00;99.90
8475;DHT22;4274;52.012;8.448;2024-03-08T08:16:00;6.50;99.90
8475;DHT22;4274;52.012;8.448;2024-03-08T08:18:25;6.80;99.90
8475;DHT22;4274;52.012;8.448;2024-03-08T08:20:51;7.20;99.90
8475;DHT22;4274;52.012;8.448;2024-03-08T08:23:18;7.60;99.90
8475;DHT22;4274;52.012;8.448;2024-03-08T08:25:45;7.80;99.90
8475;DHT22;4274;52.012;8.448;2024-03-08T08:28:11;7.70;99.90
8475;DHT22;4274;52.012;8.448;2024-03-08T08:30:38;7.90;99.90
8475;DHT22;4274;52.012;8.448;2024-03-08T08:33:04;7.80;99.90
8475;DHT22;4274;52.012;8.448;2024-03-08T08:35:31;7.70;99.90
8475;DHT22;4274;52.012;8.448;2024-03-08T08:37:56;7.60;99.90
8475;DHT22;4274;52.012;8.448;2024-03-08T08:40:24;7.60;99.90
8475;DHT22;4274;52.012;8.448;2024-03-08T08:42:51;7.80;99.90
8475;DHT22;4274;52.012;8.448;2024-03-08T08:45:18;7.80;99.90
8475;DHT22;4274;52.012;8.448;2024-03-08T08:47:44;7.80;99.90
8475;DHT22;4274;52.012;8.448;2024-03-08T08:50:10;8.10;99.90
8475;DHT22;4274;52.012;8.448;2024-03-08T08:52:39;8.30;99.90
8475;DHT22;4274;52.012;8.448;2024-03-08T08:55:05;8.30;99.90
8475;DHT22;4274;52.012;8.448;2024-03-08T08:57:32;8.20;99.90
8475;DHT22;4274;52.012;8.448;2024-03-08T08:59:59;8.30;99.90
8475;DHT22;4274;52.012;8.448;2024-03-08T09:02:25;8.40;99.90
8475;DHT22;4274;52.012;8.448;2024-03-08T09:04:51;8.50;99.90
8475;DHT22;4274;52.012;8.448;2024-03-08T09:07:17;8.90;99.90
8475;DHT22;4274;52.012;8.448;2024-03-08T09:09:44;9.10;99.90
8475;DHT22;4274;52.012;8.448;2024-03-08T09:12:10;9.30;99.90
8475;DHT22;4274;52.012;8.448;2024-03-08T09:14:39;9.40;99.90
8475;DHT22;4274;52.012;8.448;2024-03-08T09:17:05;9.50;99.90
8475;DHT22;4274;52.012;8.448;2024-03-08T09:19:34;9.80;99.90
8475;DHT22;4274;52.012;8.448;2024-03-08T09:21:59;9.80;99.90
8475;DHT22;4274;52.012;8.448;2024-03-08T09:24:25;10.00;99.90
8475;DHT22;4274;52.012;8.448;2024-03-08T09:26:50;10.00;99.90
8475;DHT22;4274;52.012;8.448;2024-03-08T09:29:17;9.70;99.90
8475;DHT22;4274;52.012;8.448;2024-03-08T09:31:43;9.70;99.90
8475;DHT22;4274;52.012;8.448;2024-03-08T09:34:08;9.60;99.90
8475;DHT22;4274;52.012;8.448;2024-03-08T09:36:34;9.50;99.90
8475;DHT22;4274;52.012;8.448;2024-03-08T09:39:00;9.60;99.90
8475;DHT22;4274;52.012;8.448;2024-03-08T09:41:26;10.00;99.90
8475;DHT22;4274;52.012;8.448;2024-03-08T09:43:52;10.60;99.90
8475;DHT22;4274;52.012;8.448;2024-03-08T09:46:19;10.80;99.90
8475;DHT22;4274;52.012;8.448;2024-03-08T09:48:45;11.20;99.90
8475;DHT22;4274;52.012;8.448;2024-03-08T09:51:12;11.40;99.90
8475;DHT22;4274;52.012;8.448;2024-03-08T09:53:41;11.70;99.90
8475;DHT22;4274;52.012;8.448;2024-03-08T09:56:08;11.50;99.90
8475;DHT22;4274;52.012;8.448;2024-03-08T09:58:33;11.40;99.90
8475;DHT22;4274;52.012;8.448;2024-03-08T10:00:59;11.40;99.90
8475;DHT22;4274;52.012;8.448;2024-03-08T10:03:30;11.80;99.90
8475;DHT22;4274;52.012;8.448;2024-03-08T10:05:58;12.00;99.60
8475;DHT22;4274;52.012;8.448;2024-03-08T10:08:27;12.00;99.60
8475;DHT22;4274;52.012;8.448;2024-03-08T10:10:55;11.90;99.40
8475;DHT22;4274;52.012;8.448;2024-03-08T10:13:21;11.90;99.90
8475;DHT22;4274;52.012;8.448;2024-03-08T10:15:46;11.70;99.40
8475;DHT22;4274;52.012;8.448;2024-03-08T10:18:12;11.80;99.20
8475;DHT22;4274;52.012;8.448;2024-03-08T10:20:37;11.80;98.60
8475;DHT22;4274;52.012;8.448;2024-03-08T10:23:03;11.80;98.60
8475;DHT22;4274;52.012;8.448;2024-03-08T10:25:31;11.70;98.90
8475;DHT22;4274;52.012;8.448;2024-03-08T10:27:56;11.90;98.40
8475;DHT22;4274;52.012;8.448;2024-03-08T10:30:22;12.30;98.40
8475;DHT22;4274;52.012;8.448;2024-03-08T10:32:48;12.70;97.80
8475;DHT22;4274;52.012;8.448;2024-03-08T10:35:14;12.90;97.70
8475;DHT22;4274;52.012;8.448;2024-03-08T10:37:49;13.50;97.30
8475;DHT22;4274;52.012;8.448;2024-03-08T10:40:19;13.70;96.40
8475;DHT22;4274;52.012;8.448;2024-03-08T10:42:51;13.90;96.20
8475;DHT22;4274;52.012;8.448;2024-03-08T10:45:36;14.30;95.30
8475;DHT22;4274;52.012;8.448;2024-03-08T10:50:44;14.70;94.00
8475;DHT22;4274;52.012;8.448;2024-03-08T10:53:14;14.80;94.20
8475;DHT22;4274;52.012;8.448;2024-03-08T10:55:40;14.80;93.30
8475;DHT22;4274;52.012;8.448;2024-03-08T10:58:07;14.60;93.10
8475;DHT22;4274;52.012;8.448;2024-03-08T11:00:34;14.40;93.30
8475;DHT22;4274;52.012;8.448;2024-03-08T11:03:00;14.60;92.90
8475;DHT22;4274;52.012;8.448;2024-03-08T11:05:41;14.60;92.50
8475;DHT22;4274;52.012;8.448;2024-03-08T11:08:18;14.60;92.00
8475;DHT22;4274;52.012;8.448;2024-03-08T11:10:50;14.50;92.10
8475;DHT22;4274;52.012;8.448;2024-03-08T11:13:37;14.80;92.40
8475;DHT22;4274;52.012;8.448;2024-03-08T11:18:57;14.40;91.50
8475;DHT22;4274;52.012;8.448;2024-03-08T11:21:25;14.00;91.10
8475;DHT22;4274;52.012;8.448;2024-03-08T11:24:07;14.00;91.60
8475;DHT22;4274;52.012;8.448;2024-03-08T11:26:34;13.90;91.50
8475;DHT22;4274;52.012;8.448;2024-03-08T11:34:32;14.80;91.30
8475;DHT22;4274;52.012;8.448;2024-03-08T11:36:59;15.00;91.30
8475;DHT22;4274;52.012;8.448;2024-03-08T11:39:25;15.20;91.50
8475;DHT22;4274;52.012;8.448;2024-03-08T11:41:51;15.50;90.80
8475;DHT22;4274;52.012;8.448;2024-03-08T11:44:17;15.70;90.30
8475;DHT22;4274;52.012;8.448;2024-03-08T11:46:43;15.70;90.50
8475;DHT22;4274;52.012;8.448;2024-03-08T11:49:14;16.00;90.20
8475;DHT22;4274;52.012;8.448;2024-03-08T11:51:40;15.80;89.20
8475;DHT22;4274;52.012;8.448;2024-03-08T11:54:10;15.60;90.10
8475;DHT22;4274;52.012;8.448;2024-03-08T11:56:37;15.60;89.60
8475;DHT22;4274;52.012;8.448;2024-03-08T11:59:03;15.50;90.30
8475;DHT22;4274;52.012;8.448;2024-03-08T12:01:28;15.50;90.10
8475;DHT22;4274;52.012;8.448;2024-03-08T12:03:58;15.50;90.00
8475;DHT22;4274;52.012;8.448;2024-03-08T12:06:25;15.50;89.50
8475;DHT22;4274;52.012;8.448;2024-03-08T12:08:51;15.10;88.70
8475;DHT22;4274;52.012;8.448;2024-03-08T12:11:17;14.80;89.60
8475;DHT22;4274;52.012;8.448;2024-03-08T12:13:49;14.80;89.20
8475;DHT22;4274;52.012;8.448;2024-03-08T12:16:17;14.50;90.00
8475;DHT22;4274;52.012;8.448;2024-03-08T12:18:51;14.10;90.50
8475;DHT22;4274;52.012;8.448;2024-03-08T12:21:17;14.20;90.20
8475;DHT22;4274;52.012;8.448;2024-03-08T12:23:46;14.30;90.30
8475;DHT22;4274;52.012;8.448;2024-03-08T12:26:17;13.90;90.30
8475;DHT22;4274;52.012;8.448;2024-03-08T12:28:44;13.70;90.60
8475;DHT22;4274;52.012;8.448;2024-03-08T12:31:14;13.90;90.80
8475;DHT22;4274;52.012;8.448;2024-03-08T12:33:53;14.00;90.00
8475;DHT22;4274;52.012;8.448;2024-03-08T12:36:20;13.90;90.00
8475;DHT22;4274;52.012;8.448;2024-03-08T12:38:48;13.70;90.50
8475;DHT22;4274;52.012;8.448;2024-03-08T12:41:17;13.60;90.10
8475;DHT22;4274;52.012;8.448;2024-03-08T12:43:44;13.50;90.50
8475;DHT22;4274;52.012;8.448;2024-03-08T12:46:17;13.50;90.50
8475;DHT22;4274;52.012;8.448;2024-03-08T12:48:43;13.50;90.50
8475;DHT22;4274;52.012;8.448;2024-03-08T12:51:13;13.60;90.10
8475;DHT22;4274;52.012;8.448;2024-03-08T12:53:38;13.20;90.20
8475;DHT22;4274;52.012;8.448;2024-03-08T12:56:06;13.20;90.70
8475;DHT22;4274;52.012;8.448;2024-03-08T12:58:34;13.30;90.20
8475;DHT22;4274;52.012;8.448;2024-03-08T13:01:02;12.90;90.10
8475;DHT22;4274;52.012;8.448;2024-03-08T13:03:30;12.60;90.80
8475;DHT22;4274;52.012;8.448;2024-03-08T13:05:56;12.70;91.20
8475;DHT22;4274;52.012;8.448;2024-03-08T13:08:22;12.90;90.90
8475;DHT22;4274;52.012;8.448;2024-03-08T13:10:50;13.00;91.20
8475;DHT22;4274;52.012;8.448;2024-03-08T13:13:16;13.10;91.10
8475;DHT22;4274;52.012;8.448;2024-03-08T13:15:42;13.20;90.60
8475;DHT22;4274;52.012;8.448;2024-03-08T13:18:08;13.10;90.60
8475;DHT22;4274;52.012;8.448;2024-03-08T13:20:35;12.90;90.80
8475;DHT22;4274;52.012;8.448;2024-03-08T13:23:04;12.70;90.70
8475;DHT22;4274;52.012;8.448;2024-03-08T13:25:30;12.60;91.20
8475;DHT22;4274;52.012;8.448;2024-03-08T13:27:56;12.70;90.80
8475;DHT22;4274;52.012;8.448;2024-03-08T13:30:24;12.60;91.20
8475;DHT22;4274;52.012;8.448;2024-03-08T13:32:52;12.50;91.40
8475;DHT22;4274;52.012;8.448;2024-03-08T13:35:19;12.70;91.20
8475;DHT22;4274;52.012;8.448;2024-03-08T13:37:50;12.80;91.60
8475;DHT22;4274;52.012;8.448;2024-03-08T13:40:17;12.70;91.20
8475;DHT22;4274;52.012;8.448;2024-03-08T13:42:46;12.50;91.50
8475;DHT22;4274;52.012;8.448;2024-03-08T13:45:12;12.50;92.10
8475;DHT22;4274;52.012;8.448;2024-03-08T13:47:40;12.70;92.50
8475;DHT22;4274;52.012;8.448;2024-03-08T13:50:10;13.10;92.80
8475;DHT22;4274;52.012;8.448;2024-03-08T13:52:39;13.30;91.80
8475;DHT22;4274;52.012;8.448;2024-03-08T13:55:06;13.00;92.20
8475;DHT22;4274;52.012;8.448;2024-03-08T13:57:32;13.10;92.40
8475;DHT22;4274;52.012;8.448;2024-03-08T13:59:58;13.00;92.40
8475;DHT22;4274;52.012;8.448;2024-03-08T14:02:24;12.60;92.50
8475;DHT22;4274;52.012;8.448;2024-03-08T14:04:53;12.60;92.50
8475;DHT22;4274;52.012;8.448;2024-03-08T14:07:23;12.60;92.30
8475;DHT22;4274;52.012;8.448;2024-03-08T14:09:51;12.50;92.40
8475;DHT22;4274;52.012;8.448;2024-03-08T14:12:18;12.50;92.10
8475;DHT22;4274;52.012;8.448;2024-03-08T14:14:44;12.40;92.40
8475;DHT22;4274;52.012;8.448;2024-03-08T14:17:10;12.50;92.90
8475;DHT22;4274;52.012;8.448;2024-03-08T14:19:37;12.50;92.70
8475;DHT22;4274;52.012;8.448;2024-03-08T14:22:04;12.60;92.80
8475;DHT22;4274;52.012;8.448;2024-03-08T14:24:30;12.30;92.60
8475;DHT22;4274;52.012;8.448;2024-03-08T14:26:56;11.60;93.00
8475;DHT22;4274;52.012;8.448;2024-03-08T14:29:25;10.90;93.90
8475;DHT22;4274;52.012;8.448;2024-03-08T14:31:54;10.60;94.60
8475;DHT22;4274;52.012;8.448;2024-03-08T14:34:22;10.20;94.90
8475;DHT22;4274;52.012;8.448;2024-03-08T14:36:51;10.00;95.70
8475;DHT22;4274;52.012;8.448;2024-03-08T14:39:17;10.00;96.40
8475;DHT22;4274;52.012;8.448;2024-03-08T14:41:50;10.00;96.30
8475;DHT22;4274;52.012;8.448;2024-03-08T14:44:19;9.90;96.60
8475;DHT22;4274;52.012;8.448;2024-03-08T14:46:44;9.80;96.80
8475;DHT22;4274;52.012;8.448;2024-03-08T14:49:11;9.80;97.10
8475;DHT22;4274;52.012;8.448;2024-03-08T14:51:37;9.80;97.00
8475;DHT22;4274;52.012;8.448;2024-03-08T14:54:02;9.80;97.50
8475;DHT22;4274;52.012;8.448;2024-03-08T14:56:32;9.80;97.00
8475;DHT22;4274;52.012;8.448;2024-03-08T14:58:57;9.80;96.20
8475;DHT22;4274;52.012;8.448;2024-03-08T15:01:24;9.80;95.50
8475;DHT22;4274;52.012;8.448;2024-03-08T15:03:53;9.70;95.60
8475;DHT22;4274;52.012;8.448;2024-03-08T15:06:20;9.60;96.00
8475;DHT22;4274;52.012;8.448;2024-03-08T15:08:47;9.60;96.30
8475;DHT22;4274;52.012;8.448;2024-03-08T15:11:13;9.70;95.80
8475;DHT22;4274;52.012;8.448;2024-03-08T15:13:50;9.70;95.50
8475;DHT22;4274;52.012;8.448;2024-03-08T15:16:19;9.60;95.50
8475;DHT22;4274;52.012;8.448;2024-03-08T15:18:49;9.60;95.90
8475;DHT22;4274;52.012;8.448;2024-03-08T15:21:17;9.50;95.80
8475;DHT22;4274;52.012;8.448;2024-03-08T15:23:44;9.50;96.10
8475;DHT22;4274;52.012;8.448;2024-03-08T15:26:15;9.40;96.40
8475;DHT22;4274;52.012;8.448;2024-03-08T15:28:42;9.30;96.10
8475;DHT22;4274;52.012;8.448;2024-03-08T15:31:07;9.30;96.50
8475;DHT22;4274;52.012;8.448;2024-03-08T15:33:37;9.30;96.20
8475;DHT22;4274;52.012;8.448;2024-03-08T15:36:17;9.30;96.60
8475;DHT22;4274;52.012;8.448;2024-03-08T15:38:46;9.20;96.80
8475;DHT22;4274;52.012;8.448;2024-03-08T15:41:12;9.20;97.20
8475;DHT22;4274;52.012;8.448;2024-03-08T15:43:41;9.30;97.40
8475;DHT22;4274;52.012;8.448;2024-03-08T15:46:09;9.20;97.60
8475;DHT22;4274;52.012;8.448;2024-03-08T15:48:36;9.20;97.90
8475;DHT22;4274;52.012;8.448;2024-03-08T15:51:05;9.10;97.90
8475;DHT22;4274;52.012;8.448;2024-03-08T15:53:38;9.10;98.20
8475;DHT22;4274;52.012;8.448;2024-03-08T15:56:04;9.10;98.00
8475;DHT22;4274;52.012;8.448;2024-03-08T15:58:33;9.10;98.40
8475;DHT22;4274;52.012;8.448;2024-03-08T16:01:02;9.00;98.60
8475;DHT22;4274;52.012;8.448;2024-03-08T16:03:31;9.10;98.60
8475;DHT22;4274;52.012;8.448;2024-03-08T16:05:58;9.10;98.40
8475;DHT22;4274;52.012;8.448;2024-03-08T16:08:24;9.00;98.50
8475;DHT22;4274;52.012;8.448;2024-03-08T16:10:53;9.00;98.70
8475;DHT22;4274;52.012;8.448;2024-03-08T16:13:26;9.00;98.80
8475;DHT22;4274;52.012;8.448;2024-03-08T16:15:53;8.90;98.60
8475;DHT22;4274;52.012;8.448;2024-03-08T16:18:23;8.80;99.00
8475;DHT22;4274;52.012;8.448;2024-03-08T16:20:51;8.80;99.20
8475;DHT22;4274;52.012;8.448;2024-03-08T16:23:17;8.70;99.50
8475;DHT22;4274;52.012;8.448;2024-03-08T16:25:43;8.70;99.50